createdAt,value
2018-02-10T00:00:37.708Z,18.77
2018-02-10T00:03:05.174Z,18.20
2018-02-10T00:05:32.659Z,18.60
2018-02-10T00:08:00.123Z,18.90
2018-02-10T00:10:27.592Z,18.83
2018-02-10T00:12:55.066Z,18.73
2018-02-10T00:15:22.539Z,18.17
2018-02-10T00:17:49.999Z,18.53
2018-02-10T00:20:17.486Z,19.73
2018-02-10T00:22:48.680Z,20.27
2018-02-10T00:25:16.160Z,17.70
2018-02-10T00:27:43.625Z,18.90
2018-02-10T00:30:11.107Z,18.87
2018-02-10T00:32:38.576Z,18.90
2018-02-10T00:35:06.043Z,19.33
2018-02-10T00:37:33.511Z,18.10
2018-02-10T00:40:01.000Z,18.10
2018-02-10T00:42:28.469Z,18.53
2018-02-10T00:44:55.932Z,18.57
2018-02-10T00:47:24.167Z,18.30
2018-02-10T00:49:51.631Z,18.87
2018-02-10T00:52:19.124Z,20.73
2018-02-10T00:54:46.613Z,17.83
2018-02-10T00:57:14.055Z,17.83
2018-02-10T00:59:41.527Z,20.40
2018-02-10T01:02:09.216Z,19.27
2018-02-10T01:04:36.687Z,19.07
2018-02-10T01:07:04.156Z,20.10
2018-02-10T01:09:31.639Z,20.37
2018-02-10T01:11:59.102Z,19.47
2018-02-10T01:14:26.556Z,21.10
2018-02-10T01:16:54.026Z,22.40
2018-02-10T01:19:21.491Z,19.97
2018-02-10T01:21:48.979Z,21.87
2018-02-10T01:24:16.457Z,22.87
2018-02-10T01:26:43.916Z,21.37
2018-02-10T01:29:12.167Z,21.70
2018-02-10T01:31:39.624Z,23.30
2018-02-10T01:34:07.096Z,20.87
2018-02-10T01:36:34.767Z,22.00
2018-02-10T01:39:03.027Z,22.70
2018-02-10T01:41:30.487Z,24.03
2018-02-10T01:43:57.954Z,23.23
2018-02-10T01:46:26.187Z,24.13
2018-02-10T01:48:53.844Z,23.87
2018-02-10T01:51:21.315Z,24.60
2018-02-10T01:53:48.776Z,23.67
2018-02-10T01:56:16.234Z,26.53
2018-02-10T01:58:43.714Z,25.00
2018-02-10T02:01:11.183Z,24.83
2018-02-10T02:03:39.418Z,26.40
2018-02-10T02:06:06.893Z,26.20
2018-02-10T02:08:34.353Z,28.23
2018-02-10T02:11:01.848Z,28.50
2018-02-10T02:13:29.305Z,26.23
2018-02-10T02:15:56.769Z,26.27
2018-02-10T02:18:24.247Z,25.67
2018-02-10T02:20:51.711Z,27.53
2018-02-10T02:23:19.191Z,29.20
2018-02-10T02:25:46.663Z,28.00
2018-02-10T02:28:14.900Z,29.30
2018-02-10T02:30:42.384Z,27.47
2018-02-10T02:33:09.852Z,30.00
2018-02-10T02:35:38.091Z,28.00
2018-02-10T02:38:05.569Z,29.33
2018-02-10T02:40:33.059Z,29.20
2018-02-10T02:43:00.523Z,27.53
2018-02-10T02:45:27.985Z,28.60
2018-02-10T02:47:55.464Z,29.37
2018-02-10T02:50:22.926Z,27.83
2018-02-10T02:52:50.403Z,28.50
2018-02-10T02:55:17.891Z,29.37
2018-02-10T02:57:46.127Z,28.17
2018-02-10T03:00:13.592Z,28.53
2018-02-10T03:02:41.487Z,28.57
2018-02-10T03:05:09.702Z,27.83
2018-02-10T03:07:37.168Z,29.07
2018-02-10T03:10:04.661Z,29.07
2018-02-10T03:12:32.125Z,28.80
2018-02-10T03:14:59.590Z,29.13
2018-02-10T03:17:27.061Z,28.80
2018-02-10T03:19:54.526Z,28.20
2018-02-10T03:22:21.995Z,29.60
2018-02-10T03:24:49.475Z,28.80
2018-02-10T03:27:16.932Z,28.77
2018-02-10T03:29:44.418Z,29.30
2018-02-10T03:32:12.648Z,27.50
2018-02-10T03:34:40.107Z,27.60
2018-02-10T03:37:07.591Z,28.47
2018-02-10T03:39:35.055Z,27.83
2018-02-10T03:42:02.539Z,28.20
2018-02-10T03:44:30.003Z,29.17
2018-02-10T03:46:57.460Z,26.10
2018-02-10T03:49:24.943Z,26.10
2018-02-10T03:51:52.441Z,26.77
2018-02-10T03:54:19.899Z,26.57
2018-02-10T03:56:48.136Z,28.33
2018-02-10T03:59:15.609Z,28.20
2018-02-10T04:01:43.070Z,26.50
2018-02-10T04:04:10.537Z,28.37
2018-02-10T04:06:38.033Z,26.77
2018-02-10T04:09:05.495Z,28.67
2018-02-10T04:11:32.943Z,30.37
2018-02-10T04:14:00.458Z,27.57
2018-02-10T04:16:27.929Z,28.27
2018-02-10T04:18:56.160Z,28.90
2018-02-10T04:21:23.639Z,29.33
2018-02-10T04:23:51.112Z,28.47
2018-02-10T04:26:18.619Z,30.27
2018-02-10T04:28:46.087Z,29.90
2018-02-10T04:31:13.556Z,28.90
2018-02-10T04:33:41.797Z,29.23
2018-02-10T04:36:09.254Z,27.27
2018-02-10T04:38:36.726Z,29.33
2018-02-10T04:41:04.195Z,27.73
2018-02-10T04:43:31.668Z,29.03
2018-02-10T04:45:59.147Z,27.43
2018-02-10T04:48:27.395Z,28.83
2018-02-10T04:50:54.863Z,27.23
2018-02-10T04:53:22.325Z,29.30
2018-02-10T04:55:49.788Z,26.03
2018-02-10T04:58:17.856Z,26.67
2018-02-10T05:00:45.321Z,28.40
2018-02-10T05:03:13.560Z,27.10
2018-02-10T05:05:41.153Z,25.30
2018-02-10T05:08:08.616Z,25.80
2018-02-10T05:10:36.849Z,28.13
2018-02-10T05:13:05.095Z,27.30
2018-02-10T05:15:32.557Z,27.23
2018-02-10T05:18:00.029Z,26.27
2018-02-10T05:20:27.527Z,25.83
2018-02-10T05:22:54.992Z,28.77
2018-02-10T05:25:23.267Z,26.97
2018-02-10T05:27:51.507Z,26.40
2018-02-10T05:30:18.975Z,24.87
2018-02-10T05:32:46.435Z,24.67
2018-02-10T05:35:13.932Z,23.77
2018-02-10T05:37:41.392Z,23.90
2018-02-10T05:40:08.871Z,27.30
2018-02-10T05:42:36.342Z,23.13
2018-02-10T05:45:03.819Z,24.00
2018-02-10T05:47:31.295Z,24.77
2018-02-10T05:49:59.571Z,23.43
2018-02-10T05:52:27.832Z,24.63
2018-02-10T05:54:55.303Z,25.50
2018-02-10T05:57:23.534Z,26.33
2018-02-10T05:59:50.991Z,25.30
2018-02-10T06:02:18.496Z,25.73
2018-02-10T06:04:46.715Z,25.77
2018-02-10T06:07:14.180Z,26.57
2018-02-10T06:09:41.657Z,26.23
2018-02-10T06:12:10.011Z,25.20
2018-02-10T06:14:37.483Z,26.10
2018-02-10T06:17:04.984Z,25.07
2018-02-10T06:19:32.447Z,27.37
2018-02-10T06:21:59.908Z,25.40
2018-02-10T06:24:27.394Z,25.63
2018-02-10T06:26:54.863Z,24.50
2018-02-10T06:29:22.396Z,25.77
2018-02-10T06:31:50.596Z,25.30
2018-02-10T06:34:18.077Z,26.23
2018-02-10T06:36:45.539Z,24.93
2018-02-10T06:39:13.763Z,24.73
2018-02-10T06:41:41.258Z,26.27
2018-02-10T06:44:08.719Z,24.77
2018-02-10T06:46:36.227Z,26.23
2018-02-10T06:49:03.707Z,24.17
2018-02-10T06:51:31.173Z,25.07
2018-02-10T06:53:58.642Z,25.97
2018-02-10T06:56:26.115Z,24.93
2018-02-10T06:58:54.367Z,24.33
2018-02-10T07:01:21.831Z,26.07
2018-02-10T07:03:49.296Z,26.63
2018-02-10T07:06:16.775Z,24.90
2018-02-10T07:08:44.233Z,25.20
2018-02-10T07:11:11.690Z,27.73
2018-02-10T07:13:39.175Z,30.80
2018-02-10T07:16:06.628Z,25.73
2018-02-10T07:18:34.087Z,28.57
2018-02-10T07:21:01.704Z,25.80
2018-02-10T07:23:29.948Z,30.23
2018-02-10T07:25:57.413Z,26.07
2018-02-10T07:28:24.903Z,24.97
2018-02-10T07:30:52.373Z,25.37
2018-02-10T07:33:19.840Z,24.90
2018-02-10T07:35:47.319Z,25.83
2018-02-10T07:38:15.374Z,25.10
2018-02-10T07:40:42.868Z,25.40
2018-02-10T07:43:10.339Z,25.90
2018-02-10T07:45:38.571Z,24.90
2018-02-10T07:48:06.820Z,24.77
2018-02-10T07:50:34.285Z,25.20
2018-02-10T07:53:01.764Z,25.07
2018-02-10T07:55:29.249Z,23.97
2018-02-10T07:57:56.717Z,23.13
2018-02-10T08:00:24.946Z,24.80
2018-02-10T08:02:52.416Z,24.57
2018-02-10T08:05:19.915Z,24.90
2018-02-10T08:07:48.176Z,24.80
2018-02-10T08:10:15.661Z,24.73
2018-02-10T08:12:43.144Z,24.43
2018-02-10T08:15:10.656Z,24.47
2018-02-10T08:17:38.084Z,23.60
2018-02-10T08:20:05.715Z,23.37
2018-02-10T08:22:33.192Z,23.07
2018-02-10T08:25:00.658Z,25.77
2018-02-10T08:27:28.594Z,24.73
2018-02-10T08:29:56.071Z,25.77
2018-02-10T08:32:23.670Z,24.00
2018-02-10T08:34:51.903Z,24.73
2018-02-10T08:37:20.139Z,25.63
2018-02-10T08:39:47.616Z,23.07
2018-02-10T08:42:15.096Z,23.70
2018-02-10T08:44:42.572Z,23.07
2018-02-10T08:47:10.079Z,22.93
2018-02-10T08:49:38.291Z,21.90
2018-02-10T08:52:05.792Z,25.37
2018-02-10T08:54:33.257Z,23.90
2018-02-10T08:57:00.720Z,23.53
2018-02-10T08:59:28.179Z,24.13
2018-02-10T09:01:55.664Z,23.03
2018-02-10T09:04:23.135Z,23.03
2018-02-10T09:06:50.613Z,21.83
2018-02-10T09:09:18.860Z,24.07
2018-02-10T09:11:46.319Z,21.53
2018-02-10T09:14:13.780Z,19.70
2018-02-10T09:16:41.248Z,20.87
2018-02-10T09:19:08.712Z,19.30
2018-02-10T09:21:36.946Z,19.57
2018-02-10T09:24:04.428Z,19.53
2018-02-10T09:26:31.934Z,20.90
2018-02-10T09:28:59.509Z,19.80
2018-02-10T09:31:26.983Z,19.17
2018-02-10T09:33:54.459Z,18.37
2018-02-10T09:36:22.025Z,19.17
2018-02-10T09:38:49.685Z,19.73
2018-02-10T09:41:17.165Z,19.40
2018-02-10T09:43:45.453Z,18.43
2018-02-10T09:46:12.942Z,18.73
2018-02-10T09:48:40.457Z,18.23
2018-02-10T09:51:08.679Z,17.67
2018-02-10T09:53:44.001Z,19.63
2018-02-10T09:56:11.495Z,17.87
2018-02-10T09:58:39.001Z,17.73
2018-02-10T10:01:06.470Z,17.83
2018-02-10T10:03:33.931Z,17.67
2018-02-10T10:06:01.407Z,16.27
2018-02-10T10:08:31.768Z,17.00
2018-02-10T10:11:00.012Z,16.77
2018-02-10T10:13:27.479Z,16.87
2018-02-10T10:15:54.947Z,15.83
2018-02-10T10:18:22.450Z,17.10
2018-02-10T10:20:49.915Z,17.33
2018-02-10T10:23:17.392Z,16.43
2018-02-10T10:25:44.884Z,16.83
2018-02-10T10:28:12.379Z,15.67
2018-02-10T10:30:39.833Z,16.30
2018-02-10T10:33:07.303Z,15.40
2018-02-10T10:35:35.668Z,15.83
2018-02-10T10:38:03.140Z,15.10
2018-02-10T10:40:30.611Z,16.43
2018-02-10T10:42:58.087Z,17.57
2018-02-10T10:45:25.544Z,16.10
2018-02-10T10:47:53.044Z,18.63
2018-02-10T10:50:21.269Z,16.83
2018-02-10T10:52:48.731Z,17.73
2018-02-10T10:55:16.221Z,16.63
2018-02-10T10:57:44.448Z,17.27
2018-02-10T11:00:11.921Z,16.43
2018-02-10T11:02:39.387Z,17.37
2018-02-10T11:05:06.879Z,18.70
2018-02-10T11:07:34.360Z,26.03
2018-02-10T11:10:01.845Z,17.27
2018-02-10T11:12:30.815Z,16.27
2018-02-10T11:14:58.341Z,18.17
2018-02-10T11:17:25.868Z,17.40
2018-02-10T11:19:54.114Z,17.57
2018-02-10T11:22:21.575Z,17.43
2018-02-10T11:24:49.053Z,15.87
2018-02-10T11:27:16.537Z,16.73
2018-02-10T11:29:44.024Z,16.30
2018-02-10T11:32:11.514Z,16.20
2018-02-10T11:34:38.966Z,17.87
2018-02-10T11:37:06.502Z,15.67
2018-02-10T11:39:34.038Z,16.00
2018-02-10T11:42:01.575Z,15.60
2018-02-10T11:44:29.795Z,16.20
2018-02-10T11:46:57.280Z,15.57
2018-02-10T11:49:24.885Z,16.27
2018-02-10T11:51:52.449Z,16.13
2018-02-10T11:54:19.909Z,15.80
2018-02-10T11:56:47.389Z,17.20
2018-02-10T11:59:14.859Z,15.97
2018-02-10T12:01:42.322Z,15.27
2018-02-10T12:04:09.817Z,14.47
2018-02-10T12:06:37.279Z,14.00
2018-02-10T12:09:04.789Z,15.17
2018-02-10T12:11:32.247Z,11.93
2018-02-10T12:13:59.718Z,13.27
2018-02-10T12:16:27.187Z,13.23
2018-02-10T12:18:55.415Z,11.70
2018-02-10T12:21:22.878Z,11.17
2018-02-10T12:23:50.344Z,11.97
2018-02-10T12:26:17.833Z,11.83
2018-02-10T12:28:46.047Z,10.57
2018-02-10T12:31:13.511Z,10.17
2018-02-10T12:33:41.263Z,8.97
2018-02-10T12:36:08.724Z,9.20
2018-02-10T12:38:36.194Z,10.40
2018-02-10T12:41:03.664Z,8.90
2018-02-10T12:43:31.140Z,9.13
2018-02-10T12:45:58.600Z,8.70
2018-02-10T12:48:32.563Z,8.10
2018-02-10T12:51:00.040Z,8.97
2018-02-10T12:53:27.512Z,11.13
2018-02-10T12:55:54.967Z,9.67
2018-02-10T12:58:22.439Z,7.93
2018-02-10T13:00:50.669Z,8.00
2018-02-10T13:03:18.147Z,6.93
2018-02-10T13:05:45.613Z,7.80
2018-02-10T13:08:13.077Z,7.50
2018-02-10T13:10:40.559Z,7.43
2018-02-10T13:13:08.020Z,8.13
2018-02-10T13:15:35.487Z,8.10
2018-02-10T13:18:03.888Z,7.87
2018-02-10T13:20:31.351Z,7.70
2018-02-10T13:22:58.816Z,8.13
2018-02-10T13:25:27.053Z,8.43
2018-02-10T13:27:54.511Z,8.53
2018-02-10T13:30:21.971Z,8.90
2018-02-10T13:32:49.485Z,8.87
2018-02-10T13:35:16.946Z,8.23
2018-02-10T13:37:45.239Z,8.27
2018-02-10T13:40:12.705Z,8.17
2018-02-10T13:42:40.192Z,7.27
2018-02-10T13:45:07.639Z,7.30
2018-02-10T13:47:35.097Z,7.77
2018-02-10T13:50:02.559Z,5.73
2018-02-10T13:52:30.029Z,6.30
2018-02-10T13:54:57.507Z,7.63
2018-02-10T13:57:24.978Z,7.03
2018-02-10T13:59:53.194Z,6.93
2018-02-10T14:02:20.664Z,7.03
2018-02-10T14:04:48.125Z,7.27
2018-02-10T14:07:15.595Z,6.93
2018-02-10T14:09:43.072Z,7.10
2018-02-10T14:12:10.553Z,7.33
2018-02-10T14:14:38.032Z,6.97
2018-02-10T14:17:05.495Z,6.60
2018-02-10T14:19:32.972Z,8.13
2018-02-10T14:22:00.428Z,7.40
2018-02-10T14:24:27.920Z,6.83
2018-02-10T14:26:56.160Z,7.23
2018-02-10T14:29:23.635Z,8.10
2018-02-10T14:31:51.092Z,9.03
2018-02-10T14:34:18.556Z,9.00
2018-02-10T14:36:46.793Z,22.70
2018-02-10T14:39:14.262Z,10.10
2018-02-10T14:41:41.743Z,10.07
2018-02-10T14:44:09.975Z,10.07
2018-02-10T14:46:37.440Z,10.53
2018-02-10T14:49:04.925Z,10.87
2018-02-10T14:51:32.387Z,13.33
2018-02-10T14:53:59.856Z,13.60
2018-02-10T14:56:27.317Z,15.47
2018-02-10T14:58:55.564Z,15.90
2018-02-10T15:01:23.030Z,15.93
2018-02-10T15:03:50.493Z,17.83
2018-02-10T15:06:18.743Z,15.90
2018-02-10T15:08:46.228Z,15.80
2018-02-10T15:11:14.488Z,17.17
2018-02-10T15:13:41.972Z,16.27
2018-02-10T15:16:10.195Z,18.07
2018-02-10T15:18:37.653Z,17.13
2018-02-10T15:21:05.124Z,16.87
2018-02-10T15:23:32.719Z,16.40
2018-02-10T15:26:00.988Z,16.93
2018-02-10T15:28:29.219Z,15.90
2018-02-10T15:31:09.210Z,16.20
2018-02-10T15:33:49.350Z,15.60
2018-02-10T15:36:16.856Z,16.67
2018-02-10T15:38:44.315Z,15.40
2018-02-10T15:41:11.783Z,16.47
2018-02-10T15:43:39.257Z,16.10
2018-02-10T15:46:06.720Z,15.67
2018-02-10T15:48:34.196Z,16.17
2018-02-10T15:51:02.192Z,15.53
2018-02-10T15:53:30.495Z,13.70
2018-02-10T15:55:57.959Z,14.17
2018-02-10T15:58:25.435Z,12.53
2018-02-10T16:00:52.894Z,14.07
2018-02-10T16:03:20.379Z,14.00
2018-02-10T16:05:49.023Z,13.90
2018-02-10T16:08:16.487Z,15.53
2018-02-10T16:10:43.967Z,14.37
2018-02-10T16:13:11.427Z,14.07
2018-02-10T16:15:39.669Z,13.87
2018-02-10T16:18:07.832Z,13.03
2018-02-10T16:20:35.318Z,13.77
2018-02-10T16:23:02.780Z,13.13
2018-02-10T16:25:30.246Z,12.47
2018-02-10T16:27:58.488Z,14.60
2018-02-10T16:30:25.976Z,11.93
2018-02-10T16:32:53.439Z,11.37
2018-02-10T16:35:21.744Z,10.53
2018-02-10T16:37:49.195Z,9.40
2018-02-10T16:40:16.664Z,10.37
2018-02-10T16:42:44.260Z,9.90
2018-02-10T16:45:11.721Z,9.87
2018-02-10T16:47:39.205Z,10.33
2018-02-10T16:50:07.441Z,9.47
2018-02-10T16:52:34.895Z,8.53
2018-02-10T16:55:02.391Z,8.03
2018-02-10T16:57:30.637Z,7.17
2018-02-10T16:59:58.099Z,8.00
2018-02-10T17:02:25.584Z,7.83
2018-02-10T17:04:53.816Z,12.87
2018-02-10T17:07:21.271Z,9.80
2018-02-10T17:09:48.864Z,9.17
2018-02-10T17:12:17.084Z,8.63
2018-02-10T17:14:44.559Z,9.50
2018-02-10T17:17:12.156Z,9.27
2018-02-10T17:19:40.384Z,9.53
2018-02-10T17:22:07.859Z,10.50
2018-02-10T17:24:35.435Z,10.57
2018-02-10T17:27:02.898Z,10.40
2018-02-10T17:29:31.131Z,9.67
2018-02-10T17:31:58.615Z,12.87
2018-02-10T17:34:26.081Z,12.53
2018-02-10T17:36:53.611Z,10.63
2018-02-10T17:39:21.069Z,10.83
2018-02-10T17:41:48.544Z,9.00
2018-02-10T17:44:16.026Z,9.90
2018-02-10T17:46:44.261Z,10.80
2018-02-10T17:49:11.752Z,11.20
2018-02-10T17:51:39.975Z,10.57
2018-02-10T17:54:07.436Z,9.03
2018-02-10T17:56:34.916Z,9.70
2018-02-10T17:59:02.412Z,10.03
2018-02-10T18:01:30.649Z,8.87
2018-02-10T18:03:58.118Z,9.43
2018-02-10T18:06:25.615Z,11.43
2018-02-10T18:08:53.139Z,11.30
2018-02-10T18:11:21.367Z,9.70
2018-02-10T18:13:48.878Z,9.67
2018-02-10T18:16:17.108Z,9.47
2018-02-10T18:18:44.600Z,9.40
2018-02-10T18:21:12.831Z,9.70
2018-02-10T18:23:40.299Z,10.27
2018-02-10T18:26:07.794Z,10.43
2018-02-10T18:28:36.013Z,9.80
2018-02-10T18:31:03.484Z,13.20
2018-02-10T18:33:30.972Z,12.10
2018-02-10T18:35:58.435Z,11.57
2018-02-10T18:38:26.675Z,12.63
2018-02-10T18:40:54.308Z,13.43
2018-02-10T18:43:21.788Z,13.60
2018-02-10T18:45:49.263Z,13.07
2018-02-10T18:48:16.734Z,13.20
2018-02-10T18:50:44.199Z,13.27
2018-02-10T18:53:12.577Z,12.77
2018-02-10T18:55:40.039Z,13.13
2018-02-10T18:58:08.271Z,13.63
2018-02-10T19:00:35.763Z,12.27
2018-02-10T19:03:03.992Z,12.03
2018-02-10T19:05:31.455Z,13.13
2018-02-10T19:07:58.927Z,12.13
2018-02-10T19:10:26.432Z,11.80
2018-02-10T19:12:53.904Z,13.00
2018-02-10T19:15:21.375Z,12.90
2018-02-10T19:17:48.877Z,13.20
2018-02-10T19:20:16.335Z,16.27
2018-02-10T19:22:43.857Z,12.27
2018-02-10T19:25:12.060Z,11.53
2018-02-10T19:27:39.573Z,11.90
2018-02-10T19:30:07.054Z,11.93
2018-02-10T19:32:34.549Z,12.13
2018-02-10T19:35:02.790Z,11.80
2018-02-10T19:37:30.260Z,11.27
2018-02-10T19:39:57.752Z,10.73
2018-02-10T19:42:25.251Z,9.60
2018-02-10T19:44:52.712Z,8.97
2018-02-10T19:47:20.178Z,7.70
2018-02-10T19:49:47.652Z,8.43
2018-02-10T19:52:15.884Z,7.80
2018-02-10T19:54:43.356Z,6.47
2018-02-10T19:57:10.835Z,6.67
2018-02-10T19:59:38.295Z,6.67
2018-02-10T20:02:05.766Z,7.37
2018-02-10T20:04:33.999Z,7.10
2018-02-10T20:07:01.459Z,8.43
2018-02-10T20:09:28.928Z,8.60
2018-02-10T20:11:56.379Z,9.67
2018-02-10T20:14:23.847Z,8.47
2018-02-10T20:16:51.312Z,8.80
2018-02-10T20:19:19.557Z,9.43
2018-02-10T20:21:47.945Z,7.83
2018-02-10T20:24:15.407Z,9.10
2018-02-10T20:26:42.901Z,8.63
2018-02-10T20:29:11.107Z,8.20
2018-02-10T20:31:38.568Z,7.87
2018-02-10T20:34:06.040Z,7.20
2018-02-10T20:36:33.639Z,7.00
2018-02-10T20:39:01.864Z,5.93
2018-02-10T20:41:29.319Z,5.90
2018-02-10T20:43:56.786Z,5.03
2018-02-10T20:46:24.253Z,5.43
2018-02-10T20:48:51.716Z,4.37
2018-02-10T20:51:19.251Z,4.27
2018-02-10T20:53:46.717Z,4.80
2018-02-10T20:56:14.180Z,5.03
2018-02-10T20:58:41.647Z,4.53
2018-02-10T21:01:09.124Z,3.90
2018-02-10T21:03:37.351Z,4.13
2018-02-10T21:06:04.824Z,4.63
2018-02-10T21:08:32.284Z,4.03
2018-02-10T21:10:59.767Z,4.30
2018-02-10T21:13:27.992Z,3.90
2018-02-10T21:15:55.457Z,4.30
2018-02-10T21:18:22.921Z,4.30
2018-02-10T21:20:50.379Z,4.53
2018-02-10T21:23:17.848Z,4.70
2018-02-10T21:25:45.356Z,4.43
2018-02-10T21:28:12.803Z,3.63
2018-02-10T21:30:40.263Z,3.90
2018-02-10T21:33:07.735Z,3.77
2018-02-10T21:35:35.583Z,4.50
2018-02-10T21:38:03.068Z,4.67
2018-02-10T21:40:33.655Z,3.57
2018-02-10T21:43:01.223Z,4.47
2018-02-10T21:45:28.680Z,4.50
2018-02-10T21:47:56.163Z,4.80
2018-02-10T21:50:23.628Z,4.27
2018-02-10T21:52:51.095Z,3.67
2018-02-10T21:55:18.564Z,3.80
2018-02-10T21:57:46.818Z,3.83
2018-02-10T22:00:14.279Z,4.40
2018-02-10T22:02:41.735Z,4.33
2018-02-10T22:05:09.208Z,3.70
2018-02-10T22:07:36.921Z,3.90
2018-02-10T22:10:04.373Z,3.90
2018-02-10T22:12:33.616Z,3.60
2018-02-10T22:15:02.301Z,5.20
2018-02-10T22:17:29.861Z,4.70
2018-02-10T22:19:57.324Z,4.73
2018-02-10T22:22:24.813Z,4.70
2018-02-10T22:24:53.153Z,5.00
2018-02-10T22:27:20.752Z,4.93
2018-02-10T22:29:49.045Z,4.77
2018-02-10T22:32:16.498Z,4.30
2018-02-10T22:34:43.965Z,4.70
2018-02-10T22:37:11.439Z,4.40
2018-02-10T22:39:38.928Z,4.60
2018-02-10T22:42:06.387Z,4.90
2018-02-10T22:44:34.845Z,5.13
2018-02-10T22:47:02.344Z,5.30
2018-02-10T22:49:30.623Z,5.73
2018-02-10T22:51:58.177Z,6.13
2018-02-10T22:54:25.656Z,5.43
2018-02-10T22:56:53.107Z,5.97
2018-02-10T22:59:20.577Z,5.07
2018-02-10T23:01:48.042Z,5.27
2018-02-10T23:04:15.508Z,6.37
2018-02-10T23:06:42.966Z,4.73
2018-02-10T23:09:10.428Z,5.93
2018-02-10T23:11:37.911Z,6.20
2018-02-10T23:14:05.380Z,5.53
2018-02-10T23:16:33.607Z,5.50
2018-02-10T23:19:01.109Z,5.37
2018-02-10T23:21:28.567Z,5.40
2018-02-10T23:23:56.792Z,5.20
2018-02-10T23:26:24.331Z,5.33
2018-02-10T23:28:51.946Z,5.67
2018-02-10T23:31:19.414Z,4.67
2018-02-10T23:33:47.672Z,4.77
2018-02-10T23:36:15.128Z,5.27
2018-02-10T23:38:42.591Z,5.53
2018-02-10T23:41:10.080Z,5.73
2018-02-10T23:43:37.545Z,4.97
2018-02-10T23:46:05.031Z,6.07
2018-02-10T23:48:32.503Z,6.23
2018-02-10T23:50:59.975Z,4.83
2018-02-10T23:53:27.573Z,5.93
2018-02-10T23:55:55.033Z,6.43
2018-02-10T23:58:22.494Z,5.70
